createdAt,value
2017-06-03T00:00:18.527Z,26.55
2017-06-03T00:01:19.960Z,26.52
2017-06-03T00:02:21.396Z,26.55
2017-06-03T00:03:22.844Z,26.54
2017-06-03T00:04:24.272Z,26.51
2017-06-03T00:05:25.793Z,26.60
2017-06-03T00:06:27.230Z,26.54
2017-06-03T00:07:28.659Z,26.55
2017-06-03T00:08:30.112Z,26.50
2017-06-03T00:09:31.551Z,26.55
2017-06-03T00:10:32.996Z,26.52
2017-06-03T00:11:34.442Z,26.52
2017-06-03T00:12:35.904Z,26.54
2017-06-03T00:13:37.341Z,26.55
2017-06-03T00:14:38.778Z,26.55
2017-06-03T00:15:40.210Z,26.57
2017-06-03T00:16:41.656Z,26.52
2017-06-03T00:17:43.096Z,26.57
2017-06-03T00:18:44.532Z,26.55
2017-06-03T00:19:46.028Z,26.63
2017-06-03T00:20:47.470Z,26.58
2017-06-03T00:21:48.897Z,26.50
2017-06-03T00:22:50.333Z,26.66
2017-06-03T00:23:51.771Z,26.57
2017-06-03T00:24:53.201Z,26.51
2017-06-03T00:25:54.636Z,26.58
2017-06-03T00:26:56.081Z,26.52
2017-06-03T00:27:57.518Z,26.55
2017-06-03T00:28:58.965Z,26.50
2017-06-03T00:30:00.397Z,26.50
2017-06-03T00:31:01.891Z,26.52
2017-06-03T00:32:03.324Z,26.54
2017-06-03T00:33:04.764Z,26.47
2017-06-03T00:34:06.199Z,26.50
2017-06-03T00:35:07.661Z,26.48
2017-06-03T00:36:09.079Z,26.45
2017-06-03T00:37:10.509Z,26.47
2017-06-03T00:38:11.955Z,26.45
2017-06-03T00:39:13.400Z,26.47
2017-06-03T00:40:14.834Z,26.47
2017-06-03T00:41:16.266Z,26.47
2017-06-03T00:42:17.702Z,26.51
2017-06-03T00:43:19.137Z,26.52
2017-06-03T00:44:20.571Z,26.45
2017-06-03T00:45:22.015Z,26.50
2017-06-03T00:46:23.472Z,26.44
2017-06-03T00:47:24.920Z,26.50
2017-06-03T00:48:26.355Z,26.44
2017-06-03T00:49:27.799Z,26.48
2017-06-03T00:50:29.254Z,26.50
2017-06-03T00:51:30.692Z,26.47
2017-06-03T00:52:32.131Z,26.44
2017-06-03T00:53:33.571Z,26.40
2017-06-03T00:54:35.013Z,26.43
2017-06-03T00:55:36.473Z,26.40
2017-06-03T00:56:37.906Z,26.39
2017-06-03T00:57:39.348Z,26.39
2017-06-03T00:58:40.783Z,26.40
2017-06-03T00:59:42.214Z,26.37
2017-06-03T01:00:43.662Z,26.48
2017-06-03T01:01:45.095Z,26.44
2017-06-03T01:02:46.537Z,26.39
2017-06-03T01:03:47.978Z,26.37
2017-06-03T01:04:49.420Z,26.35
2017-06-03T01:05:50.858Z,26.43
2017-06-03T01:06:52.293Z,26.39
2017-06-03T01:07:53.751Z,26.45
2017-06-03T01:08:55.204Z,26.37
2017-06-03T01:09:56.635Z,26.44
2017-06-03T01:10:58.081Z,26.35
2017-06-03T01:11:59.516Z,26.39
2017-06-03T01:13:00.953Z,26.37
2017-06-03T01:14:02.386Z,26.40
2017-06-03T01:15:03.829Z,26.35
2017-06-03T01:16:05.266Z,26.30
2017-06-03T01:17:06.707Z,26.36
2017-06-03T01:18:08.143Z,26.40
2017-06-03T01:19:09.587Z,26.35
2017-06-03T01:20:11.021Z,26.37
2017-06-03T01:21:12.451Z,26.30
2017-06-03T01:22:13.888Z,26.30
2017-06-03T01:23:15.324Z,26.32
2017-06-03T01:24:16.752Z,26.29
2017-06-03T01:25:18.199Z,26.33
2017-06-03T01:26:19.630Z,26.30
2017-06-03T01:27:21.068Z,26.29
2017-06-03T01:28:22.509Z,26.26
2017-06-03T01:29:23.955Z,26.29
2017-06-03T01:30:25.390Z,26.30
2017-06-03T01:31:26.828Z,26.30
2017-06-03T01:32:28.267Z,26.25
2017-06-03T01:33:29.706Z,26.18
2017-06-03T01:34:31.133Z,26.23
2017-06-03T01:35:32.571Z,26.21
2017-06-03T01:36:34.012Z,26.28
2017-06-03T01:37:35.452Z,26.18
2017-06-03T01:38:36.888Z,26.28
2017-06-03T01:39:38.330Z,26.23
2017-06-03T01:40:39.768Z,26.15
2017-06-03T01:41:41.205Z,26.21
2017-06-03T01:42:42.641Z,26.21
2017-06-03T01:43:44.088Z,26.17
2017-06-03T01:44:45.529Z,26.20
2017-06-03T01:45:46.967Z,26.20
2017-06-03T01:46:48.397Z,26.23
2017-06-03T01:47:49.839Z,26.18
2017-06-03T01:48:51.274Z,26.25
2017-06-03T01:49:52.709Z,26.17
2017-06-03T01:50:54.146Z,26.13
2017-06-03T01:51:55.584Z,26.17
2017-06-03T01:52:57.015Z,26.17
2017-06-03T01:53:58.451Z,26.15
2017-06-03T01:54:59.890Z,26.12
2017-06-03T01:56:01.320Z,26.10
2017-06-03T01:57:02.772Z,26.06
2017-06-03T01:58:04.207Z,26.09
2017-06-03T01:59:05.648Z,26.07
2017-06-03T02:00:07.090Z,26.09
2017-06-03T02:01:08.527Z,26.07
2017-06-03T02:02:09.964Z,26.05
2017-06-03T02:03:11.405Z,26.05
2017-06-03T02:04:12.846Z,26.09
2017-06-03T02:05:14.295Z,26.01
2017-06-03T02:06:15.720Z,26.07
2017-06-03T02:07:17.160Z,25.95
2017-06-03T02:08:18.593Z,25.92
2017-06-03T02:09:20.024Z,26.07
2017-06-03T02:10:21.460Z,25.92
2017-06-03T02:11:22.901Z,25.95
2017-06-03T02:12:24.354Z,26.10
2017-06-03T02:13:25.777Z,25.99
2017-06-03T02:14:27.216Z,26.06
2017-06-03T02:15:28.684Z,25.94
2017-06-03T02:16:30.102Z,25.95
2017-06-03T02:17:31.542Z,25.97
2017-06-03T02:18:32.975Z,25.99
2017-06-03T02:19:34.417Z,25.94
2017-06-03T02:20:35.851Z,26.01
2017-06-03T02:21:37.294Z,25.98
2017-06-03T02:22:38.733Z,25.99
2017-06-03T02:23:40.167Z,25.97
2017-06-03T02:24:41.608Z,25.95
2017-06-03T02:25:43.054Z,25.98
2017-06-03T02:26:44.495Z,25.85
2017-06-03T02:27:45.930Z,25.83
2017-06-03T02:28:47.365Z,25.87
2017-06-03T02:29:48.802Z,25.83
2017-06-03T02:30:50.237Z,25.91
2017-06-03T02:31:51.675Z,25.83
2017-06-03T02:32:53.112Z,25.88
2017-06-03T02:33:54.553Z,25.83
2017-06-03T02:34:55.986Z,25.92
2017-06-03T02:35:57.429Z,25.87
2017-06-03T02:36:58.870Z,25.85
2017-06-03T02:38:00.308Z,25.92
2017-06-03T02:39:01.742Z,25.87
2017-06-03T02:40:03.182Z,25.90
2017-06-03T02:41:04.620Z,25.83
2017-06-03T02:42:06.061Z,25.88
2017-06-03T02:43:07.521Z,25.85
2017-06-03T02:44:08.940Z,25.85
2017-06-03T02:45:10.369Z,25.90
2017-06-03T02:46:11.805Z,25.87
2017-06-03T02:47:13.240Z,25.90
2017-06-03T02:48:14.670Z,25.82
2017-06-03T02:49:16.107Z,25.90
2017-06-03T02:50:17.546Z,25.80
2017-06-03T02:51:18.980Z,25.90
2017-06-03T02:52:20.418Z,25.79
2017-06-03T02:53:21.846Z,25.85
2017-06-03T02:54:23.278Z,25.80
2017-06-03T02:55:24.714Z,25.83
2017-06-03T02:56:26.156Z,25.87
2017-06-03T02:57:27.593Z,25.80
2017-06-03T02:58:29.030Z,25.83
2017-06-03T02:59:30.465Z,25.82
2017-06-03T03:00:31.898Z,25.82
2017-06-03T03:01:34.140Z,25.85
2017-06-03T03:02:35.578Z,25.76
2017-06-03T03:03:37.014Z,25.82
2017-06-03T03:04:38.458Z,25.82
2017-06-03T03:05:39.885Z,25.79
2017-06-03T03:06:41.326Z,25.88
2017-06-03T03:07:42.756Z,25.77
2017-06-03T03:08:44.194Z,25.87
2017-06-03T03:09:45.678Z,25.76
2017-06-03T03:10:47.121Z,25.76
2017-06-03T03:11:48.556Z,25.79
2017-06-03T03:12:49.994Z,25.87
2017-06-03T03:13:51.477Z,25.79
2017-06-03T03:14:52.912Z,25.75
2017-06-03T03:15:54.351Z,25.76
2017-06-03T03:16:55.789Z,25.87
2017-06-03T03:17:57.221Z,25.76
2017-06-03T03:18:58.663Z,25.80
2017-06-03T03:20:00.095Z,25.77
2017-06-03T03:21:01.584Z,25.75
2017-06-03T03:22:03.018Z,25.76
2017-06-03T03:23:04.452Z,25.72
2017-06-03T03:24:05.893Z,25.73
2017-06-03T03:25:07.332Z,25.69
2017-06-03T03:26:08.764Z,25.70
2017-06-03T03:27:10.211Z,25.72
2017-06-03T03:28:11.647Z,25.70
2017-06-03T03:29:13.089Z,25.70
2017-06-03T03:30:14.520Z,25.67
2017-06-03T03:31:15.991Z,25.72
2017-06-03T03:32:17.428Z,25.64
2017-06-03T03:33:18.871Z,25.64
2017-06-03T03:34:20.306Z,25.73
2017-06-03T03:35:21.758Z,25.70
2017-06-03T03:36:23.196Z,25.70
2017-06-03T03:37:24.633Z,25.65
2017-06-03T03:38:26.077Z,25.69
2017-06-03T03:39:27.561Z,25.64
2017-06-03T03:40:28.996Z,25.61
2017-06-03T03:41:30.430Z,25.65
2017-06-03T03:42:31.866Z,25.69
2017-06-03T03:43:33.307Z,25.65
2017-06-03T03:44:34.748Z,25.65
2017-06-03T03:45:36.186Z,25.65
2017-06-03T03:46:37.625Z,25.69
2017-06-03T03:47:39.062Z,25.69
2017-06-03T03:48:40.494Z,25.65
2017-06-03T03:49:41.936Z,25.70
2017-06-03T03:50:43.375Z,25.69
2017-06-03T03:51:44.813Z,25.65
2017-06-03T03:52:46.249Z,25.60
2017-06-03T03:53:47.694Z,25.60
2017-06-03T03:54:49.147Z,25.61
2017-06-03T03:55:50.563Z,25.65
2017-06-03T03:56:51.996Z,25.60
2017-06-03T03:57:53.433Z,25.55
2017-06-03T03:58:54.876Z,25.60
2017-06-03T03:59:56.322Z,25.55
2017-06-03T04:00:57.760Z,25.57
2017-06-03T04:01:59.196Z,25.60
2017-06-03T04:03:00.635Z,25.57
2017-06-03T04:04:02.188Z,25.57
2017-06-03T04:05:03.627Z,25.51
2017-06-03T04:06:05.061Z,25.47
2017-06-03T04:07:06.503Z,25.51
2017-06-03T04:08:07.948Z,25.54
2017-06-03T04:09:09.387Z,25.50
2017-06-03T04:10:10.825Z,25.57
2017-06-03T04:11:12.304Z,25.47
2017-06-03T04:12:13.728Z,25.50
2017-06-03T04:13:15.160Z,25.51
2017-06-03T04:14:16.597Z,25.51
2017-06-03T04:15:18.078Z,25.54
2017-06-03T04:16:19.562Z,25.47
2017-06-03T04:17:21.000Z,25.50
2017-06-03T04:18:22.449Z,25.47
2017-06-03T04:19:23.878Z,25.46
2017-06-03T04:20:25.339Z,25.47
2017-06-03T04:21:26.746Z,25.45
2017-06-03T04:22:28.183Z,25.54
2017-06-03T04:23:29.622Z,25.55
2017-06-03T04:24:31.056Z,25.40
2017-06-03T04:25:32.489Z,25.51
2017-06-03T04:26:33.953Z,25.47
2017-06-03T04:27:35.387Z,25.54
2017-06-03T04:28:36.819Z,25.43
2017-06-03T04:29:38.266Z,25.54
2017-06-03T04:30:39.702Z,25.43
2017-06-03T04:31:41.131Z,25.50
2017-06-03T04:32:42.560Z,25.42
2017-06-03T04:33:44.051Z,25.42
2017-06-03T04:34:45.491Z,25.45
2017-06-03T04:35:46.919Z,25.50
2017-06-03T04:36:48.360Z,25.46
2017-06-03T04:37:49.800Z,25.40
2017-06-03T04:38:51.236Z,25.45
2017-06-03T04:39:52.668Z,25.43
2017-06-03T04:40:54.134Z,25.40
2017-06-03T04:41:55.567Z,25.43
2017-06-03T04:42:57.007Z,25.40
2017-06-03T04:43:58.458Z,25.42
2017-06-03T04:44:59.946Z,25.40
2017-06-03T04:46:01.387Z,25.40
2017-06-03T04:47:02.819Z,25.39
2017-06-03T04:48:04.305Z,25.42
2017-06-03T04:49:05.740Z,25.35
2017-06-03T04:50:07.189Z,25.38
2017-06-03T04:51:08.617Z,25.40
2017-06-03T04:52:10.056Z,25.40
2017-06-03T04:53:11.502Z,25.43
2017-06-03T04:54:12.949Z,25.45
2017-06-03T04:55:14.386Z,25.43
2017-06-03T04:56:15.825Z,25.42
2017-06-03T04:57:17.260Z,25.40
2017-06-03T04:58:18.706Z,25.45
2017-06-03T04:59:20.158Z,25.28
2017-06-03T05:00:21.605Z,25.38
2017-06-03T05:01:23.045Z,25.42
2017-06-03T05:02:24.489Z,25.38
2017-06-03T05:03:25.919Z,25.45
2017-06-03T05:04:27.357Z,25.46
2017-06-03T05:05:28.794Z,25.39
2017-06-03T05:06:30.233Z,25.45
2017-06-03T05:07:31.674Z,25.43
2017-06-03T05:08:33.108Z,25.40
2017-06-03T05:09:34.544Z,25.40
2017-06-03T05:10:36.043Z,25.43
2017-06-03T05:11:37.493Z,25.40
2017-06-03T05:12:38.932Z,25.45
2017-06-03T05:13:40.373Z,25.43
2017-06-03T05:14:41.817Z,25.40
2017-06-03T05:15:43.237Z,25.40
2017-06-03T05:16:44.668Z,25.47
2017-06-03T05:17:46.164Z,25.42
2017-06-03T05:18:47.599Z,25.50
2017-06-03T05:19:49.043Z,25.52
2017-06-03T05:20:50.479Z,25.42
2017-06-03T05:21:51.913Z,25.45
2017-06-03T05:22:53.350Z,25.42
2017-06-03T05:23:54.791Z,25.51
2017-06-03T05:24:56.230Z,25.45
2017-06-03T05:25:57.669Z,25.46
2017-06-03T05:26:59.110Z,25.52
2017-06-03T05:28:00.545Z,25.50
2017-06-03T05:29:02.062Z,25.43
2017-06-03T05:30:03.506Z,25.43
2017-06-03T05:31:04.946Z,25.43
2017-06-03T05:32:06.382Z,25.46
2017-06-03T05:33:07.841Z,25.54
2017-06-03T05:34:09.276Z,25.51
2017-06-03T05:35:10.719Z,25.40
2017-06-03T05:36:12.157Z,25.45
2017-06-03T05:37:13.586Z,25.47
2017-06-03T05:38:15.023Z,25.40
2017-06-03T05:39:16.465Z,25.40
2017-06-03T05:40:17.953Z,25.40
2017-06-03T05:41:19.383Z,25.39
2017-06-03T05:42:20.821Z,25.45
2017-06-03T05:43:22.255Z,25.39
2017-06-03T05:44:23.703Z,25.43
2017-06-03T05:45:25.138Z,25.42
2017-06-03T05:46:26.579Z,25.46
2017-06-03T05:47:28.058Z,25.40
2017-06-03T05:48:29.498Z,25.45
2017-06-03T05:49:30.939Z,25.40
2017-06-03T05:50:32.372Z,25.40
2017-06-03T05:51:33.810Z,25.40
2017-06-03T05:52:35.252Z,25.39
2017-06-03T05:53:36.698Z,25.46
2017-06-03T05:54:38.142Z,25.43
2017-06-03T05:55:39.585Z,25.45
2017-06-03T05:56:41.018Z,25.40
2017-06-03T05:57:42.454Z,25.40
2017-06-03T05:58:43.890Z,25.43
2017-06-03T05:59:45.332Z,25.45
2017-06-03T06:00:46.768Z,25.46
2017-06-03T06:01:48.203Z,25.50
2017-06-03T06:02:49.649Z,25.45
2017-06-03T06:03:51.091Z,25.43
2017-06-03T06:04:52.532Z,25.42
2017-06-03T06:05:53.969Z,25.40
2017-06-03T06:06:55.410Z,25.43
2017-06-03T06:07:56.851Z,25.42
2017-06-03T06:08:58.290Z,25.43
2017-06-03T06:09:59.812Z,25.45
2017-06-03T06:11:01.249Z,25.40
2017-06-03T06:12:02.684Z,25.45
2017-06-03T06:13:04.118Z,25.43
2017-06-03T06:14:05.558Z,25.43
2017-06-03T06:15:06.990Z,25.54
2017-06-03T06:16:08.432Z,25.40
2017-06-03T06:17:09.882Z,25.47
2017-06-03T06:18:11.316Z,25.47
2017-06-03T06:19:12.756Z,25.46
2017-06-03T06:20:14.194Z,25.42
2017-06-03T06:21:15.636Z,25.46
2017-06-03T06:22:17.076Z,25.45
2017-06-03T06:23:18.520Z,25.45
2017-06-03T06:24:19.961Z,25.43
2017-06-03T06:25:21.398Z,25.43
2017-06-03T06:26:22.846Z,25.54
2017-06-03T06:27:24.280Z,25.45
2017-06-03T06:28:25.800Z,25.42
2017-06-03T06:29:27.252Z,25.46
2017-06-03T06:30:28.691Z,25.42
2017-06-03T06:31:30.149Z,25.43
2017-06-03T06:32:31.586Z,25.42
2017-06-03T06:33:33.022Z,25.45
2017-06-03T06:34:34.460Z,25.42
2017-06-03T06:35:35.922Z,25.50
2017-06-03T06:36:37.370Z,25.43
2017-06-03T06:37:38.817Z,25.51
2017-06-03T06:38:40.252Z,25.52
2017-06-03T06:39:41.695Z,25.55
2017-06-03T06:40:43.138Z,25.54
2017-06-03T06:41:44.575Z,25.45
2017-06-03T06:42:46.016Z,25.50
2017-06-03T06:43:47.454Z,25.54
2017-06-03T06:44:48.896Z,25.46
2017-06-03T06:45:50.332Z,25.51
2017-06-03T06:46:51.772Z,25.46
2017-06-03T06:47:53.209Z,25.43
2017-06-03T06:48:54.647Z,25.51
2017-06-03T06:49:56.084Z,25.47
2017-06-03T06:50:57.530Z,25.47
2017-06-03T06:51:58.968Z,25.50
2017-06-03T06:53:00.404Z,25.46
2017-06-03T06:54:01.843Z,25.46
2017-06-03T06:55:03.284Z,25.46
2017-06-03T06:56:04.718Z,25.47
2017-06-03T06:57:06.150Z,25.50
2017-06-03T06:58:07.593Z,25.52
2017-06-03T06:59:09.034Z,25.52
2017-06-03T07:00:10.472Z,25.51
2017-06-03T07:01:11.911Z,25.43
2017-06-03T07:02:13.347Z,25.54
2017-06-03T07:03:14.786Z,25.51
2017-06-03T07:04:16.225Z,25.50
2017-06-03T07:05:17.664Z,25.60
2017-06-03T07:06:19.100Z,25.52
2017-06-03T07:07:20.544Z,25.50
2017-06-03T07:08:21.991Z,25.55
2017-06-03T07:09:23.426Z,25.61
2017-06-03T07:10:24.858Z,25.57
2017-06-03T07:11:26.297Z,25.58
2017-06-03T07:12:27.754Z,25.54
2017-06-03T07:13:29.183Z,25.57
2017-06-03T07:14:30.622Z,25.57
2017-06-03T07:15:32.062Z,25.54
2017-06-03T07:16:33.495Z,25.57
2017-06-03T07:17:34.948Z,25.58
2017-06-03T07:18:36.379Z,25.60
2017-06-03T07:19:37.811Z,25.57
2017-06-03T07:20:39.250Z,25.57
2017-06-03T07:21:40.689Z,25.60
2017-06-03T07:22:42.130Z,25.55
2017-06-03T07:23:43.573Z,25.61
2017-06-03T07:24:45.008Z,25.58
2017-06-03T07:25:46.443Z,25.55
2017-06-03T07:26:47.886Z,25.55
2017-06-03T07:27:49.324Z,25.58
2017-06-03T07:28:50.758Z,25.57
2017-06-03T07:29:52.200Z,25.57
2017-06-03T07:30:53.638Z,25.52
2017-06-03T07:31:55.075Z,25.60
2017-06-03T07:32:56.514Z,25.58
2017-06-03T07:33:57.958Z,25.61
2017-06-03T07:34:59.396Z,25.61
2017-06-03T07:36:00.843Z,25.65
2017-06-03T07:37:02.272Z,25.65
2017-06-03T07:38:03.707Z,25.64
2017-06-03T07:39:05.147Z,25.73
2017-06-03T07:40:06.578Z,25.65
2017-06-03T07:41:08.019Z,25.64
2017-06-03T07:42:09.465Z,25.65
2017-06-03T07:43:10.900Z,25.69
2017-06-03T07:44:12.339Z,25.67
2017-06-03T07:45:13.780Z,25.65
2017-06-03T07:46:15.217Z,25.65
2017-06-03T07:47:16.655Z,25.62
2017-06-03T07:48:18.090Z,25.72
2017-06-03T07:49:19.530Z,25.62
2017-06-03T07:50:20.970Z,25.62
2017-06-03T07:51:22.406Z,25.65
2017-06-03T07:52:23.838Z,25.67
2017-06-03T07:53:25.274Z,25.65
2017-06-03T07:54:26.711Z,25.70
2017-06-03T07:55:28.151Z,25.69
2017-06-03T07:56:29.594Z,25.69
2017-06-03T07:57:31.031Z,25.76
2017-06-03T07:58:32.471Z,25.69
2017-06-03T07:59:33.904Z,25.76
2017-06-03T08:00:35.348Z,25.73
2017-06-03T08:01:36.781Z,25.67
2017-06-03T08:02:38.214Z,25.70
2017-06-03T08:03:39.657Z,25.80
2017-06-03T08:04:41.096Z,25.76
2017-06-03T08:05:42.526Z,25.75
2017-06-03T08:06:43.961Z,25.77
2017-06-03T08:07:45.398Z,25.75
2017-06-03T08:08:46.835Z,25.76
2017-06-03T08:09:48.320Z,25.77
2017-06-03T08:10:49.755Z,25.83
2017-06-03T08:11:51.200Z,25.83
2017-06-03T08:12:52.639Z,25.75
2017-06-03T08:13:54.078Z,25.83
2017-06-03T08:14:55.517Z,25.82
2017-06-03T08:15:56.952Z,25.87
2017-06-03T08:16:58.391Z,25.73
2017-06-03T08:17:59.828Z,25.70
2017-06-03T08:19:01.272Z,25.83
2017-06-03T08:20:02.715Z,25.76
2017-06-03T08:21:04.152Z,25.82
2017-06-03T08:22:05.591Z,25.75
2017-06-03T08:23:07.034Z,25.76
2017-06-03T08:24:08.465Z,25.79
2017-06-03T08:25:09.913Z,25.82
2017-06-03T08:26:11.350Z,25.80
2017-06-03T08:27:12.788Z,25.82
2017-06-03T08:28:14.225Z,25.80
2017-06-03T08:29:15.666Z,25.87
2017-06-03T08:30:17.130Z,25.83
2017-06-03T08:31:18.539Z,25.83
2017-06-03T08:32:19.983Z,25.88
2017-06-03T08:33:21.424Z,25.87
2017-06-03T08:34:22.864Z,25.91
2017-06-03T08:35:24.294Z,25.88
2017-06-03T08:36:25.727Z,25.85
2017-06-03T08:37:27.158Z,25.91
2017-06-03T08:38:28.599Z,25.95
2017-06-03T08:39:30.038Z,25.90
2017-06-03T08:40:31.477Z,25.85
2017-06-03T08:41:32.924Z,25.87
2017-06-03T08:42:34.359Z,25.98
2017-06-03T08:43:35.792Z,25.97
2017-06-03T08:44:37.226Z,25.98
2017-06-03T08:45:38.666Z,25.95
2017-06-03T08:46:40.097Z,25.97
2017-06-03T08:47:41.541Z,25.95
2017-06-03T08:48:42.978Z,25.95
2017-06-03T08:49:44.417Z,25.94
2017-06-03T08:50:45.855Z,25.97
2017-06-03T08:51:47.299Z,25.97
2017-06-03T08:52:48.727Z,26.10
2017-06-03T08:53:50.164Z,26.05
2017-06-03T08:54:51.599Z,26.07
2017-06-03T08:55:53.040Z,26.06
2017-06-03T08:56:54.478Z,26.07
2017-06-03T08:57:55.914Z,26.09
2017-06-03T08:58:57.358Z,26.07
2017-06-03T08:59:58.791Z,26.12
2017-06-03T09:01:00.232Z,26.12
2017-06-03T09:02:01.669Z,26.09
2017-06-03T09:03:03.106Z,26.10
2017-06-03T09:04:04.540Z,26.10
2017-06-03T09:05:05.990Z,26.09
2017-06-03T09:06:07.429Z,26.17
2017-06-03T09:07:08.868Z,26.25
2017-06-03T09:08:10.309Z,26.17
2017-06-03T09:09:11.748Z,26.32
2017-06-03T09:10:13.185Z,26.23
2017-06-03T09:11:14.621Z,26.25
2017-06-03T09:12:16.056Z,26.25
2017-06-03T09:13:17.493Z,26.28
2017-06-03T09:14:18.929Z,26.26
2017-06-03T09:15:20.365Z,26.28
2017-06-03T09:16:21.810Z,26.26
2017-06-03T09:17:23.251Z,26.28
2017-06-03T09:18:24.692Z,26.30
2017-06-03T09:19:26.125Z,26.32
2017-06-03T09:20:27.562Z,26.36
2017-06-03T09:21:29.001Z,26.30
2017-06-03T09:22:30.439Z,26.30
2017-06-03T09:23:31.876Z,26.40
2017-06-03T09:24:33.319Z,26.40
2017-06-03T09:25:34.757Z,26.39
2017-06-03T09:26:36.193Z,26.39
2017-06-03T09:27:37.628Z,26.39
2017-06-03T09:28:39.070Z,26.37
2017-06-03T09:29:40.513Z,26.43
2017-06-03T09:30:41.949Z,26.39
2017-06-03T09:31:43.393Z,26.52
2017-06-03T09:32:44.826Z,26.50
2017-06-03T09:33:46.262Z,26.50
2017-06-03T09:34:47.695Z,26.52
2017-06-03T09:35:49.136Z,26.48
2017-06-03T09:36:50.584Z,26.48
2017-06-03T09:37:52.017Z,26.54
2017-06-03T09:38:53.461Z,26.51
2017-06-03T09:39:54.897Z,26.58
2017-06-03T09:40:56.341Z,26.55
2017-06-03T09:41:57.774Z,26.57
2017-06-03T09:42:59.214Z,26.54
2017-06-03T09:44:00.650Z,26.57
2017-06-03T09:45:02.101Z,26.54
2017-06-03T09:46:03.551Z,26.57
2017-06-03T09:47:04.983Z,26.65
2017-06-03T09:48:06.419Z,26.63
2017-06-03T09:49:07.852Z,26.57
2017-06-03T09:50:09.298Z,26.58
2017-06-03T09:51:10.735Z,26.57
2017-06-03T09:52:12.174Z,26.57
2017-06-03T09:53:13.616Z,26.57
2017-06-03T09:54:15.056Z,26.60
2017-06-03T09:55:16.491Z,26.60
2017-06-03T09:56:17.938Z,26.69
2017-06-03T09:57:19.373Z,26.65
2017-06-03T09:58:20.818Z,26.67
2017-06-03T09:59:22.256Z,26.72
2017-06-03T10:00:23.701Z,26.66
2017-06-03T10:01:25.140Z,26.70
2017-06-03T10:02:26.569Z,26.66
2017-06-03T10:03:28.013Z,26.66
2017-06-03T10:04:29.459Z,26.75
2017-06-03T10:05:30.910Z,26.81
2017-06-03T10:06:32.350Z,26.81
2017-06-03T10:07:33.787Z,26.76
2017-06-03T10:08:35.221Z,26.72
2017-06-03T10:09:36.662Z,26.73
2017-06-03T10:10:38.107Z,26.69
2017-06-03T10:11:39.546Z,26.72
2017-06-03T10:12:40.979Z,26.81
2017-06-03T10:13:42.425Z,26.85
2017-06-03T10:14:43.867Z,26.81
2017-06-03T10:15:45.310Z,26.84
2017-06-03T10:16:46.751Z,26.88
2017-06-03T10:17:48.244Z,26.88
2017-06-03T10:18:49.682Z,26.87
2017-06-03T10:19:51.123Z,26.88
2017-06-03T10:20:52.563Z,26.85
2017-06-03T10:21:54.004Z,26.87
2017-06-03T10:22:55.439Z,26.91
2017-06-03T10:23:56.879Z,26.92
2017-06-03T10:24:58.314Z,26.94
2017-06-03T10:25:59.764Z,26.95
2017-06-03T10:27:01.206Z,27.00
2017-06-03T10:28:02.644Z,27.04
2017-06-03T10:29:04.082Z,27.00
2017-06-03T10:30:05.534Z,27.00
2017-06-03T10:31:06.970Z,27.03
2017-06-03T10:32:08.412Z,27.06
2017-06-03T10:33:09.861Z,27.04
2017-06-03T10:34:11.295Z,27.09
2017-06-03T10:35:12.742Z,27.14
2017-06-03T10:36:14.190Z,26.97
2017-06-03T10:37:15.632Z,27.07
2017-06-03T10:38:17.072Z,27.00
2017-06-03T10:39:18.543Z,27.09
2017-06-03T10:40:19.981Z,27.12
2017-06-03T10:41:21.413Z,27.09
2017-06-03T10:42:22.863Z,27.09
2017-06-03T10:43:24.306Z,27.07
2017-06-03T10:44:25.769Z,27.12
2017-06-03T10:45:27.206Z,27.10
2017-06-03T10:46:28.641Z,27.21
2017-06-03T10:47:30.085Z,27.09
2017-06-03T10:48:31.524Z,27.21
2017-06-03T10:49:32.971Z,27.21
2017-06-03T10:50:34.413Z,27.18
2017-06-03T10:51:35.847Z,27.12
2017-06-03T10:52:37.285Z,27.19
2017-06-03T10:53:38.728Z,27.14
2017-06-03T10:54:40.179Z,27.17
2017-06-03T10:55:41.619Z,27.13
2017-06-03T10:56:43.055Z,27.27
2017-06-03T10:57:44.516Z,27.27
2017-06-03T10:58:45.957Z,27.29
2017-06-03T10:59:47.391Z,27.24
2017-06-03T11:00:48.834Z,27.29
2017-06-03T11:01:50.282Z,27.32
2017-06-03T11:02:51.768Z,27.37
2017-06-03T11:03:53.207Z,27.31
2017-06-03T11:04:54.649Z,27.32
2017-06-03T11:05:56.113Z,27.27
2017-06-03T11:06:57.553Z,27.40
2017-06-03T11:07:59.000Z,27.36
2017-06-03T11:09:00.438Z,27.37
2017-06-03T11:10:01.880Z,27.40
2017-06-03T11:11:03.318Z,27.40
2017-06-03T11:12:04.761Z,27.43
2017-06-03T11:13:06.194Z,27.36
2017-06-03T11:14:07.634Z,27.41
2017-06-03T11:15:09.074Z,27.41
2017-06-03T11:16:10.511Z,27.43
2017-06-03T11:17:11.959Z,27.41
2017-06-03T11:18:13.403Z,27.44
2017-06-03T11:19:14.836Z,27.54
2017-06-03T11:20:16.282Z,27.46
2017-06-03T11:21:17.714Z,27.49
2017-06-03T11:22:19.158Z,27.57
2017-06-03T11:23:20.599Z,27.57
2017-06-03T11:24:22.040Z,27.51
2017-06-03T11:25:23.479Z,27.51
2017-06-03T11:26:24.921Z,27.50
2017-06-03T11:27:26.354Z,27.49
2017-06-03T11:28:27.791Z,27.54
2017-06-03T11:29:29.255Z,27.54
2017-06-03T11:30:30.696Z,27.62
2017-06-03T11:31:32.144Z,27.54
2017-06-03T11:32:33.585Z,27.62
2017-06-03T11:33:35.027Z,27.51
2017-06-03T11:34:36.520Z,27.67
2017-06-03T11:35:37.965Z,27.70
2017-06-03T11:36:39.403Z,27.65
2017-06-03T11:37:40.836Z,27.70
2017-06-03T11:38:42.293Z,27.62
2017-06-03T11:39:43.733Z,27.70
2017-06-03T11:40:45.164Z,27.75
2017-06-03T11:41:46.627Z,27.70
2017-06-03T11:42:48.070Z,27.67
2017-06-03T11:43:49.506Z,27.70
2017-06-03T11:44:50.944Z,27.70
2017-06-03T11:45:52.381Z,27.67
2017-06-03T11:46:53.826Z,27.69
2017-06-03T11:47:55.265Z,27.69
2017-06-03T11:48:56.705Z,27.72
2017-06-03T11:49:58.153Z,27.74
2017-06-03T11:50:59.585Z,27.74
2017-06-03T11:52:01.031Z,27.70
2017-06-03T11:53:02.469Z,27.69
2017-06-03T11:54:03.919Z,27.79
2017-06-03T11:55:05.363Z,27.78
2017-06-03T11:56:06.796Z,27.79
2017-06-03T11:57:08.236Z,27.78
2017-06-03T11:58:09.672Z,27.74
2017-06-03T11:59:11.114Z,27.74
2017-06-03T12:00:12.558Z,27.78
2017-06-03T12:01:14.000Z,27.85
2017-06-03T12:02:15.441Z,27.88
2017-06-03T12:03:16.878Z,27.82
2017-06-03T12:04:18.313Z,27.79
2017-06-03T12:05:19.758Z,27.84
2017-06-03T12:06:21.199Z,27.81
2017-06-03T12:07:22.655Z,27.87
2017-06-03T12:08:24.092Z,27.82
2017-06-03T12:09:25.529Z,27.87
2017-06-03T12:10:26.971Z,27.87
2017-06-03T12:11:28.410Z,27.84
2017-06-03T12:12:29.924Z,27.85
2017-06-03T12:13:31.389Z,27.82
2017-06-03T12:14:32.796Z,27.88
2017-06-03T12:15:34.241Z,27.84
2017-06-03T12:16:35.674Z,27.88
2017-06-03T12:17:37.112Z,27.87
2017-06-03T12:18:38.548Z,27.85
2017-06-03T12:19:39.989Z,27.90
2017-06-03T12:20:41.423Z,27.82
2017-06-03T12:21:42.854Z,27.84
2017-06-03T12:22:44.296Z,27.82
2017-06-03T12:23:45.735Z,27.85
2017-06-03T12:24:47.174Z,27.87
2017-06-03T12:25:48.619Z,27.82
2017-06-03T12:26:50.058Z,27.84
2017-06-03T12:27:51.490Z,27.88
2017-06-03T12:28:52.923Z,27.79
2017-06-03T12:29:54.374Z,27.88
2017-06-03T12:30:55.821Z,27.93
2017-06-03T12:31:57.257Z,27.93
2017-06-03T12:32:58.706Z,27.88
2017-06-03T12:34:00.212Z,27.92
2017-06-03T12:35:01.655Z,27.93
2017-06-03T12:36:03.092Z,27.92
2017-06-03T12:37:04.530Z,27.96
2017-06-03T12:38:05.996Z,27.93
2017-06-03T12:39:07.411Z,27.96
2017-06-03T12:40:08.849Z,27.96
2017-06-03T12:41:10.293Z,28.00
2017-06-03T12:42:11.731Z,27.92
2017-06-03T12:43:13.178Z,27.93
2017-06-03T12:44:14.624Z,28.00
2017-06-03T12:45:16.064Z,27.97
2017-06-03T12:46:17.500Z,27.96
2017-06-03T12:47:18.932Z,27.96
2017-06-03T12:48:20.379Z,27.99
2017-06-03T12:49:21.822Z,27.93
2017-06-03T12:50:23.261Z,28.06
2017-06-03T12:51:24.707Z,28.03
2017-06-03T12:52:26.151Z,28.04
2017-06-03T12:53:27.597Z,28.06
2017-06-03T12:54:29.044Z,28.09
2017-06-03T12:55:30.485Z,28.04
2017-06-03T12:56:31.926Z,28.06
2017-06-03T12:57:33.364Z,28.03
2017-06-03T12:58:34.805Z,28.14
2017-06-03T12:59:36.245Z,28.04
2017-06-03T13:00:37.697Z,28.02
2017-06-03T13:01:39.139Z,28.09
2017-06-03T13:02:40.578Z,28.09
2017-06-03T13:03:42.017Z,28.09
2017-06-03T13:04:43.457Z,28.09
2017-06-03T13:05:44.901Z,28.07
2017-06-03T13:06:46.351Z,28.14
2017-06-03T13:07:47.803Z,28.11
2017-06-03T13:08:49.238Z,28.09
2017-06-03T13:09:50.677Z,28.09
2017-06-03T13:10:52.120Z,28.12